createdAt,value
2022-10-28T00:00:51.010Z,6.9245
2022-10-28T00:05:52.633Z,6.75872
2022-10-28T00:10:54.326Z,6.85558
2022-10-28T00:15:55.948Z,7.12172
2022-10-28T00:20:57.580Z,7.12394
2022-10-28T00:25:59.229Z,6.67773
2022-10-28T00:31:00.857Z,7.26495
2022-10-28T00:36:04.302Z,7.07249
2022-10-28T00:41:06.472Z,6.61136
2022-10-28T00:46:08.044Z,6.76539
2022-10-28T00:51:09.720Z,7.09155
2022-10-28T00:56:11.485Z,6.17468
2022-10-28T01:01:13.115Z,6.64407
2022-10-28T01:06:14.843Z,7.06456
2022-10-28T01:11:16.501Z,6.97436
2022-10-28T01:16:18.091Z,7.1014
2022-10-28T01:21:19.911Z,7.01215
2022-10-28T01:26:21.577Z,7.37325
2022-10-28T01:31:23.230Z,6.42398
2022-10-28T01:36:24.825Z,6.80699
2022-10-28T01:41:26.439Z,6.82859
2022-10-28T01:46:28.051Z,7.1665
2022-10-28T01:51:29.678Z,7.09123
2022-10-28T01:56:31.392Z,7.32466
2022-10-28T02:01:33.171Z,6.87369
2022-10-28T02:06:34.858Z,6.77396
2022-10-28T02:11:36.491Z,6.77492
2022-10-28T02:16:38.090Z,6.4694
2022-10-28T02:21:39.859Z,6.60977
2022-10-28T02:26:41.464Z,6.72696
2022-10-28T02:31:43.084Z,6.84002
2022-10-28T02:36:44.708Z,6.91434
2022-10-28T02:41:46.349Z,6.9642
2022-10-28T02:46:47.980Z,6.74951
2022-10-28T02:51:49.587Z,6.76888
2022-10-28T02:56:51.234Z,6.77904
2022-10-28T03:01:52.921Z,7.01438
2022-10-28T03:06:54.633Z,6.97531
2022-10-28T03:11:56.270Z,6.46908
2022-10-28T03:16:57.883Z,6.18008
2022-10-28T03:21:59.519Z,6.47162
2022-10-28T03:27:01.189Z,6.4189
2022-10-28T03:32:02.797Z,6.61422
2022-10-28T03:37:04.495Z,6.77365
2022-10-28T03:42:06.150Z,7.02867
2022-10-28T03:47:07.773Z,6.69933
2022-10-28T03:52:09.386Z,7.04995
2022-10-28T03:57:11.725Z,6.56785
2022-10-28T04:02:13.438Z,7.01882
2022-10-28T04:07:15.130Z,6.92958
2022-10-28T04:12:16.764Z,6.90671
2022-10-28T04:17:18.362Z,6.48401
2022-10-28T04:22:20.065Z,5.7615
2022-10-28T04:27:21.712Z,6.61326
2022-10-28T04:32:23.284Z,6.15181
2022-10-28T04:37:24.883Z,6.76507
2022-10-28T04:42:26.522Z,6.96261
2022-10-28T04:47:28.135Z,6.15531
2022-10-28T04:52:29.769Z,5.99016
2022-10-28T04:57:31.380Z,6.32363
2022-10-28T05:02:33.043Z,7.0582
2022-10-28T05:07:34.755Z,6.89401
2022-10-28T05:12:36.357Z,6.15848
2022-10-28T05:17:37.973Z,6.8054
2022-10-28T05:22:39.686Z,6.81334
2022-10-28T05:27:41.338Z,6.69997
2022-10-28T05:32:42.976Z,6.90481
2022-10-28T05:37:44.555Z,6.77396
2022-10-28T05:42:46.184Z,7.03724
2022-10-28T05:47:47.816Z,6.8089
2022-10-28T05:52:49.440Z,6.72093
2022-10-28T05:57:51.336Z,6.71553
2022-10-28T06:02:53.310Z,6.57071
2022-10-28T06:07:55.149Z,6.51291
2022-10-28T06:12:55.344Z,6.78667
2022-10-28T06:17:56.992Z,6.67297
2022-10-28T06:22:58.683Z,6.41636
2022-10-28T06:28:00.310Z,7.08043
2022-10-28T06:33:01.940Z,6.76444
2022-10-28T06:38:08.510Z,6.71521
2022-10-28T06:43:11.035Z,6.88861
2022-10-28T06:48:14.156Z,7.19318
2022-10-28T06:53:15.828Z,7.11156
2022-10-28T06:58:17.462Z,7.07122
2022-10-28T07:03:19.117Z,6.58468
2022-10-28T07:08:20.808Z,7.13093
2022-10-28T07:13:22.426Z,7.05058
2022-10-28T07:18:24.028Z,6.71553
2022-10-28T07:23:25.630Z,6.76317
2022-10-28T07:28:27.288Z,6.79207
2022-10-28T07:33:28.906Z,6.94705
2022-10-28T07:38:30.641Z,6.55261
2022-10-28T07:43:32.261Z,6.49099
2022-10-28T07:48:33.868Z,6.41636
2022-10-28T07:53:35.506Z,6.36237
2022-10-28T07:58:37.084Z,6.51735
2022-10-28T08:03:39.266Z,6.01366
2022-10-28T08:08:40.944Z,6.46813
2022-10-28T08:13:42.508Z,6.69139
2022-10-28T08:18:44.095Z,6.81779
2022-10-28T08:23:45.679Z,6.8975
2022-10-28T08:28:47.294Z,6.48464
2022-10-28T08:33:48.930Z,6.67932
2022-10-28T08:38:50.547Z,6.54848
2022-10-28T08:43:57.297Z,6.74506
2022-10-28T08:48:59.682Z,6.58151
2022-10-28T08:54:01.316Z,6.28806
2022-10-28T08:59:02.982Z,6.12133
2022-10-28T09:04:04.612Z,6.83621
2022-10-28T09:09:06.214Z,6.59548
2022-10-28T09:14:07.829Z,6.50306
2022-10-28T09:19:09.440Z,6.10036
2022-10-28T09:24:11.087Z,6.32109
2022-10-28T09:29:12.667Z,6.76412
2022-10-28T09:34:14.277Z,6.75872
2022-10-28T09:39:15.930Z,6.5507
2022-10-28T09:44:17.580Z,6.21565
2022-10-28T09:49:19.262Z,6.45606
2022-10-28T09:54:20.891Z,6.35666
2022-10-28T09:59:22.493Z,6.61199
2022-10-28T10:04:24.151Z,6.02351
2022-10-28T10:09:25.833Z,6.44939
2022-10-28T10:14:27.467Z,6.57388
2022-10-28T10:19:29.053Z,6.26964
2022-10-28T10:24:30.726Z,6.5923
2022-10-28T10:29:32.357Z,6.62851
2022-10-28T10:34:34.292Z,6.80159
2022-10-28T10:39:35.897Z,6.29854
2022-10-28T10:44:37.534Z,6.69615
2022-10-28T10:49:39.242Z,6.83653
2022-10-28T10:54:40.990Z,6.55134
2022-10-28T10:59:42.590Z,6.62089
2022-10-28T11:04:44.296Z,6.09814
2022-10-28T11:09:45.956Z,5.95713
2022-10-28T11:14:47.537Z,5.3893
2022-10-28T11:19:49.142Z,6.03367
2022-10-28T11:24:50.768Z,6.62629
2022-10-28T11:29:52.359Z,5.75833
2022-10-28T11:34:53.985Z,6.35411
2022-10-28T11:39:55.613Z,6.67646
2022-10-28T11:44:57.311Z,6.20739
2022-10-28T11:49:58.971Z,4.89736
2022-10-28T11:55:00.576Z,5.86122
2022-10-28T12:00:02.232Z,6.23407
2022-10-28T12:05:03.866Z,6.54657
2022-10-28T12:10:05.489Z,6.55705
2022-10-28T12:15:07.091Z,6.51259
2022-10-28T12:20:08.740Z,6.72093
2022-10-28T12:25:10.471Z,6.55388
2022-10-28T12:30:12.307Z,6.51386
2022-10-28T12:35:14.023Z,6.61771
2022-10-28T12:40:15.654Z,6.49576
2022-10-28T12:45:17.296Z,6.69012
2022-10-28T12:50:18.957Z,6.05813
2022-10-28T12:55:20.663Z,5.58366
2022-10-28T13:00:22.370Z,6.34776
2022-10-28T13:05:23.993Z,6.46146
2022-10-28T13:10:25.654Z,6.33315
2022-10-28T13:15:27.310Z,6.40493
2022-10-28T13:20:28.965Z,5.90315
2022-10-28T13:25:30.718Z,6.10862
2022-10-28T13:30:32.328Z,6.21057
2022-10-28T13:35:34.277Z,6.38683
2022-10-28T13:40:35.921Z,6.33442
2022-10-28T13:45:37.690Z,6.46781
2022-10-28T13:50:39.297Z,6.60945
2022-10-28T13:55:40.822Z,6.64344
2022-10-28T14:00:42.464Z,6.69298
2022-10-28T14:05:44.162Z,6.49766
2022-10-28T14:10:45.797Z,6.09052
2022-10-28T14:15:47.470Z,6.19913
2022-10-28T14:20:49.143Z,5.88091
2022-10-28T14:25:50.792Z,6.3214
2022-10-28T14:30:52.480Z,6.33569
2022-10-28T14:35:54.150Z,6.23724
2022-10-28T14:40:55.789Z,6.29822
2022-10-28T14:45:57.409Z,6.39413
2022-10-28T14:50:59.029Z,6.17722
2022-10-28T14:56:00.774Z,6.30457
2022-10-28T15:01:02.457Z,6.58786
2022-10-28T15:06:04.083Z,6.72791
2022-10-28T15:11:05.684Z,6.55165
2022-10-28T15:16:07.364Z,6.39508
2022-10-28T15:21:08.977Z,6.3719
2022-10-28T15:26:10.569Z,6.60628
2022-10-28T15:31:12.310Z,6.48591
2022-10-28T15:36:17.770Z,6.75078
2022-10-28T15:41:20.055Z,6.57103
2022-10-28T15:46:21.744Z,6.65963
2022-10-28T15:51:23.444Z,6.89719
2022-10-28T15:56:25.065Z,6.53292
2022-10-28T16:01:26.897Z,6.76253
2022-10-28T16:06:28.581Z,6.79873
2022-10-28T16:11:30.239Z,6.57357
2022-10-28T16:16:31.984Z,6.51894
2022-10-28T16:21:33.623Z,6.61199
2022-10-28T16:26:35.254Z,6.87432
2022-10-28T16:31:36.997Z,7.00675
2022-10-28T16:36:38.665Z,6.99373
2022-10-28T16:41:40.399Z,6.15213
2022-10-28T16:46:42.074Z,5.22003
2022-10-28T16:51:43.710Z,5.75769
2022-10-28T16:56:45.445Z,6.07496
2022-10-28T17:01:47.215Z,6.59675
2022-10-28T17:06:48.909Z,6.6428
2022-10-28T17:11:50.531Z,7.07599
2022-10-28T17:16:52.186Z,7.02327
2022-10-28T17:21:53.777Z,7.27766
2022-10-28T17:26:55.430Z,5.99143
2022-10-28T17:31:57.187Z,5.99016
2022-10-28T17:36:58.837Z,5.56714
2022-10-28T17:42:00.476Z,5.5627
2022-10-28T17:47:02.121Z,4.94119
2022-10-28T17:52:03.735Z,5.15492
2022-10-28T17:57:05.555Z,5.44456
2022-10-28T18:02:07.280Z,5.42487
2022-10-28T18:07:09.035Z,6.1985
2022-10-28T18:12:10.710Z,6.45701
2022-10-28T18:17:12.319Z,6.28266
2022-10-28T18:22:14.031Z,6.61485
2022-10-28T18:27:15.830Z,6.43605
2022-10-28T18:32:17.428Z,6.31156
2022-10-28T18:37:19.063Z,6.42398
2022-10-28T18:42:21.939Z,6.67964
2022-10-28T18:47:23.833Z,7.13188
2022-10-28T18:52:25.576Z,6.8324
2022-10-28T18:57:27.323Z,6.77746
2022-10-28T19:02:29.138Z,6.67742
2022-10-28T19:07:30.981Z,7.45297
2022-10-28T19:12:32.610Z,7.38564
2022-10-28T19:17:34.210Z,7.72959
2022-10-28T19:22:35.852Z,7.79914
2022-10-28T19:27:37.521Z,7.83376
2022-10-28T19:32:39.120Z,7.92459
2022-10-28T19:37:40.718Z,7.77373
2022-10-28T19:42:42.427Z,7.85186
2022-10-28T19:47:44.144Z,7.84106
2022-10-28T19:52:45.745Z,8.06115
2022-10-28T19:57:50.326Z,7.16904
2022-10-28T20:02:54.638Z,7.39358
2022-10-28T20:07:56.707Z,7.98493
2022-10-28T20:12:58.631Z,8.26473
2022-10-28T20:18:00.232Z,7.97191
2022-10-28T20:23:01.904Z,8.29363
2022-10-28T20:28:03.515Z,7.99604
2022-10-28T20:33:05.376Z,7.6775
2022-10-28T20:43:08.695Z,7.83439
2022-10-28T20:48:10.391Z,7.95476
2022-10-28T20:53:12.028Z,8.78209
2022-10-28T20:58:13.685Z,9.27626
2022-10-28T21:03:15.339Z,9.19242
2022-10-28T21:08:17.157Z,9.54304
2022-10-28T21:13:18.950Z,9.79776
2022-10-28T21:18:20.592Z,9.41855
2022-10-28T21:23:22.203Z,9.40457
2022-10-28T21:28:23.851Z,9.75901
2022-10-28T21:33:25.498Z,8.97486
2022-10-28T21:38:27.070Z,9.60243
2022-10-28T21:43:28.654Z,9.30516
2022-10-28T21:48:30.305Z,8.66902
2022-10-28T21:53:31.924Z,8.77637
2022-10-28T21:58:33.536Z,9.45094
2022-10-28T22:03:35.168Z,10.02547
2022-10-28T22:08:36.786Z,9.77965
2022-10-28T22:13:38.387Z,9.84444
2022-10-28T22:18:40.014Z,9.74345
2022-10-28T22:23:41.684Z,9.84952
2022-10-28T22:28:43.299Z,9.88478
2022-10-28T22:38:46.582Z,9.12667
2022-10-28T22:43:48.311Z,9.36074
2022-10-28T22:48:49.931Z,9.90733
2022-10-28T22:53:51.816Z,10.12234
2022-10-28T22:58:53.488Z,9.51382
2022-10-28T23:03:55.094Z,9.73074
2022-10-28T23:08:56.764Z,10.18237
2022-10-28T23:13:59.859Z,10.02325
2022-10-28T23:19:01.474Z,10.00769
2022-10-28T23:24:03.098Z,10.45423
2022-10-28T23:29:04.719Z,10.24303
2022-10-28T23:34:06.365Z,9.7968
2022-10-28T23:39:08.087Z,8.85291
2022-10-28T23:44:09.749Z,8.24631
2022-10-28T23:49:11.348Z,7.77087
2022-10-28T23:54:12.961Z,8.56707
2022-10-28T23:59:14.604Z,9.22735
